sensor_id;sensor_type;location;lat;lon;timestamp;temperature;humidity
12849;DHT22;6493;50.928;7.172;2023-03-14T00:01:10;8.30;59.10
12849;DHT22;6493;50.928;7.172;2023-03-14T00:06:14;8.40;59.10
12849;DHT22;6493;50.928;7.172;2023-03-14T00:11:19;8.40;59.60
12849;DHT22;6493;50.928;7.172;2023-03-14T00:16:24;8.40;59.10
12849;DHT22;6493;50.928;7.172;2023-03-14T00:21:28;8.30;59.00
12849;DHT22;6493;50.928;7.172;2023-03-14T00:26:31;8.30;59.10
12849;DHT22;6493;50.928;7.172;2023-03-14T00:31:36;8.30;59.10
12849;DHT22;6493;50.928;7.172;2023-03-14T00:36:44;8.30;59.10
12849;DHT22;6493;50.928;7.172;2023-03-14T00:41:48;8.30;59.00
12849;DHT22;6493;50.928;7.172;2023-03-14T00:46:53;8.30;59.10
12849;DHT22;6493;50.928;7.172;2023-03-14T00:51:57;8.30;59.10
12849;DHT22;6493;50.928;7.172;2023-03-14T00:57:00;8.20;59.00
12849;DHT22;6493;50.928;7.172;2023-03-14T01:02:06;8.20;59.00
12849;DHT22;6493;50.928;7.172;2023-03-14T01:07:09;8.20;59.10
12849;DHT22;6493;50.928;7.172;2023-03-14T01:12:13;8.30;59.10
12849;DHT22;6493;50.928;7.172;2023-03-14T01:17:18;8.30;59.20
12849;DHT22;6493;50.928;7.172;2023-03-14T01:22:24;8.30;59.20
12849;DHT22;6493;50.928;7.172;2023-03-14T01:27:27;8.30;59.20
12849;DHT22;6493;50.928;7.172;2023-03-14T01:32:33;8.30;59.20
12849;DHT22;6493;50.928;7.172;2023-03-14T01:37:36;8.30;59.30
12849;DHT22;6493;50.928;7.172;2023-03-14T01:42:46;8.30;59.40
12849;DHT22;6493;50.928;7.172;2023-03-14T01:47:51;8.30;59.50
12849;DHT22;6493;50.928;7.172;2023-03-14T01:52:54;8.20;59.50
12849;DHT22;6493;50.928;7.172;2023-03-14T01:58:00;8.10;59.40
12849;DHT22;6493;50.928;7.172;2023-03-14T02:03:10;8.00;60.10
12849;DHT22;6493;50.928;7.172;2023-03-14T02:08:17;7.90;59.60
12849;DHT22;6493;50.928;7.172;2023-03-14T02:13:26;7.80;59.70
12849;DHT22;6493;50.928;7.172;2023-03-14T02:18:50;7.70;60.30
12849;DHT22;6493;50.928;7.172;2023-03-14T02:24:17;7.50;59.90
12849;DHT22;6493;50.928;7.172;2023-03-14T02:29:32;7.40;60.20
12849;DHT22;6493;50.928;7.172;2023-03-14T02:34:37;7.30;60.30
12849;DHT22;6493;50.928;7.172;2023-03-14T02:39:43;7.20;60.50
12849;DHT22;6493;50.928;7.172;2023-03-14T02:44:53;7.20;61.20
12849;DHT22;6493;50.928;7.172;2023-03-14T02:50:02;7.10;61.00
12849;DHT22;6493;50.928;7.172;2023-03-14T02:55:07;7.10;60.70
12849;DHT22;6493;50.928;7.172;2023-03-14T03:00:19;7.00;61.20
12849;DHT22;6493;50.928;7.172;2023-03-14T03:05:23;7.00;60.80
12849;DHT22;6493;50.928;7.172;2023-03-14T03:10:27;6.90;60.40
12849;DHT22;6493;50.928;7.172;2023-03-14T03:15:32;6.90;60.40
12849;DHT22;6493;50.928;7.172;2023-03-14T03:20:36;6.80;60.50
12849;DHT22;6493;50.928;7.172;2023-03-14T03:25:39;6.80;60.70
12849;DHT22;6493;50.928;7.172;2023-03-14T03:30:45;6.80;60.80
12849;DHT22;6493;50.928;7.172;2023-03-14T03:35:50;6.80;60.90
12849;DHT22;6493;50.928;7.172;2023-03-14T03:41:03;6.80;61.10
12849;DHT22;6493;50.928;7.172;2023-03-14T03:46:08;6.80;61.30
12849;DHT22;6493;50.928;7.172;2023-03-14T03:51:13;6.70;61.60
12849;DHT22;6493;50.928;7.172;2023-03-14T03:56:18;6.70;61.60
12849;DHT22;6493;50.928;7.172;2023-03-14T04:01:23;6.70;61.60
12849;DHT22;6493;50.928;7.172;2023-03-14T04:06:30;6.70;62.00
12849;DHT22;6493;50.928;7.172;2023-03-14T04:11:35;6.70;61.80
12849;DHT22;6493;50.928;7.172;2023-03-14T04:16:48;6.70;61.90
12849;DHT22;6493;50.928;7.172;2023-03-14T04:21:54;6.70;62.30
12849;DHT22;6493;50.928;7.172;2023-03-14T04:27:00;6.70;62.30
12849;DHT22;6493;50.928;7.172;2023-03-14T04:32:07;6.70;62.50
12849;DHT22;6493;50.928;7.172;2023-03-14T04:37:12;6.60;62.60
12849;DHT22;6493;50.928;7.172;2023-03-14T04:42:18;6.70;62.30
12849;DHT22;6493;50.928;7.172;2023-03-14T04:47:24;6.70;62.60
12849;DHT22;6493;50.928;7.172;2023-03-14T04:52:29;6.70;63.20
12849;DHT22;6493;50.928;7.172;2023-03-14T04:57:34;6.60;63.50
12849;DHT22;6493;50.928;7.172;2023-03-14T05:02:39;6.60;62.90
12849;DHT22;6493;50.928;7.172;2023-03-14T05:07:58;6.60;62.70
12849;DHT22;6493;50.928;7.172;2023-03-14T05:13:27;6.60;63.30
12849;DHT22;6493;50.928;7.172;2023-03-14T05:18:52;6.60;63.00
12849;DHT22;6493;50.928;7.172;2023-03-14T05:24:19;6.60;63.10
12849;DHT22;6493;50.928;7.172;2023-03-14T05:29:43;6.60;63.00
12849;DHT22;6493;50.928;7.172;2023-03-14T05:34:53;6.60;63.30
12849;DHT22;6493;50.928;7.172;2023-03-14T05:40:14;6.60;63.80
12849;DHT22;6493;50.928;7.172;2023-03-14T05:45:29;6.50;63.50
12849;DHT22;6493;50.928;7.172;2023-03-14T05:50:57;6.50;63.30
12849;DHT22;6493;50.928;7.172;2023-03-14T05:56:31;6.50;63.80
12849;DHT22;6493;50.928;7.172;2023-03-14T06:01:43;6.50;63.50
12849;DHT22;6493;50.928;7.172;2023-03-14T06:06:55;6.50;63.90
12849;DHT22;6493;50.928;7.172;2023-03-14T06:11:59;6.50;63.70
12849;DHT22;6493;50.928;7.172;2023-03-14T06:17:08;6.50;63.80
12849;DHT22;6493;50.928;7.172;2023-03-14T06:22:21;6.50;63.60
12849;DHT22;6493;50.928;7.172;2023-03-14T06:27:25;6.50;63.70
12849;DHT22;6493;50.928;7.172;2023-03-14T06:32:30;6.50;64.30
12849;DHT22;6493;50.928;7.172;2023-03-14T06:37:40;6.50;64.30
12849;DHT22;6493;50.928;7.172;2023-03-14T06:42:43;6.50;64.00
12849;DHT22;6493;50.928;7.172;2023-03-14T06:47:49;6.50;63.90
12849;DHT22;6493;50.928;7.172;2023-03-14T06:52:57;6.50;64.00
12849;DHT22;6493;50.928;7.172;2023-03-14T06:58:02;6.50;64.00
12849;DHT22;6493;50.928;7.172;2023-03-14T07:03:09;6.50;64.30
12849;DHT22;6493;50.928;7.172;2023-03-14T07:08:17;6.50;64.40
12849;DHT22;6493;50.928;7.172;2023-03-14T07:13:21;6.60;64.70
12849;DHT22;6493;50.928;7.172;2023-03-14T07:18:31;6.60;64.70
12849;DHT22;6493;50.928;7.172;2023-03-14T07:23:40;6.60;64.70
12849;DHT22;6493;50.928;7.172;2023-03-14T07:28:51;6.70;64.30
12849;DHT22;6493;50.928;7.172;2023-03-14T07:33:56;6.80;64.80
12849;DHT22;6493;50.928;7.172;2023-03-14T07:39:06;6.80;64.90
12849;DHT22;6493;50.928;7.172;2023-03-14T07:44:31;6.90;64.80
12849;DHT22;6493;50.928;7.172;2023-03-14T07:49:35;7.00;64.50
12849;DHT22;6493;50.928;7.172;2023-03-14T07:54:40;7.10;64.40
12849;DHT22;6493;50.928;7.172;2023-03-14T07:59:43;7.10;64.30
12849;DHT22;6493;50.928;7.172;2023-03-14T08:04:47;7.20;64.70
12849;DHT22;6493;50.928;7.172;2023-03-14T08:09:52;7.20;64.60
12849;DHT22;6493;50.928;7.172;2023-03-14T08:14:55;7.30;64.70
12849;DHT22;6493;50.928;7.172;2023-03-14T08:20:01;7.40;64.60
12849;DHT22;6493;50.928;7.172;2023-03-14T08:25:07;7.40;64.60
12849;DHT22;6493;50.928;7.172;2023-03-14T08:30:12;7.50;64.80
12849;DHT22;6493;50.928;7.172;2023-03-14T08:35:16;7.60;64.90
12849;DHT22;6493;50.928;7.172;2023-03-14T08:40:22;7.70;64.80
12849;DHT22;6493;50.928;7.172;2023-03-14T08:45:25;7.70;65.50
12849;DHT22;6493;50.928;7.172;2023-03-14T08:50:29;7.80;64.90
12849;DHT22;6493;50.928;7.172;2023-03-14T08:55:34;7.90;64.80
12849;DHT22;6493;50.928;7.172;2023-03-14T09:00:39;8.00;65.00
12849;DHT22;6493;50.928;7.172;2023-03-14T09:05:43;8.00;65.00
12849;DHT22;6493;50.928;7.172;2023-03-14T09:10:48;8.00;64.60
12849;DHT22;6493;50.928;7.172;2023-03-14T09:15:52;8.10;64.70
12849;DHT22;6493;50.928;7.172;2023-03-14T09:20:55;8.10;64.80
12849;DHT22;6493;50.928;7.172;2023-03-14T09:26:00;8.00;64.80
12849;DHT22;6493;50.928;7.172;2023-03-14T09:31:07;8.00;64.80
12849;DHT22;6493;50.928;7.172;2023-03-14T09:36:11;8.00;64.80
12849;DHT22;6493;50.928;7.172;2023-03-14T09:41:18;7.90;64.80
12849;DHT22;6493;50.928;7.172;2023-03-14T09:46:24;7.90;65.00
12849;DHT22;6493;50.928;7.172;2023-03-14T09:51:28;7.80;64.70
12849;DHT22;6493;50.928;7.172;2023-03-14T09:56:34;7.70;64.80
12849;DHT22;6493;50.928;7.172;2023-03-14T10:01:38;7.70;65.60
12849;DHT22;6493;50.928;7.172;2023-03-14T10:06:41;7.60;64.70
12849;DHT22;6493;50.928;7.172;2023-03-14T10:11:46;7.40;64.00
12849;DHT22;6493;50.928;7.172;2023-03-14T10:16:49;7.20;63.60
12849;DHT22;6493;50.928;7.172;2023-03-14T10:21:54;7.00;63.40
12849;DHT22;6493;50.928;7.172;2023-03-14T10:27:00;6.70;63.50
12849;DHT22;6493;50.928;7.172;2023-03-14T10:32:05;6.50;63.50
12849;DHT22;6493;50.928;7.172;2023-03-14T10:37:18;6.40;63.80
12849;DHT22;6493;50.928;7.172;2023-03-14T10:42:26;6.30;63.80
12849;DHT22;6493;50.928;7.172;2023-03-14T10:47:32;6.30;64.20
12849;DHT22;6493;50.928;7.172;2023-03-14T10:52:35;6.10;63.80
12849;DHT22;6493;50.928;7.172;2023-03-14T10:58:04;6.00;64.00
12849;DHT22;6493;50.928;7.172;2023-03-14T11:03:10;5.90;63.70
12849;DHT22;6493;50.928;7.172;2023-03-14T11:08:20;5.90;63.80
12849;DHT22;6493;50.928;7.172;2023-03-14T11:13:31;5.80;64.00
12849;DHT22;6493;50.928;7.172;2023-03-14T11:18:51;5.70;63.80
12849;DHT22;6493;50.928;7.172;2023-03-14T11:24:09;5.70;64.20
12849;DHT22;6493;50.928;7.172;2023-03-14T11:29:21;5.70;64.40
12849;DHT22;6493;50.928;7.172;2023-03-14T11:34:28;5.70;64.80
12849;DHT22;6493;50.928;7.172;2023-03-14T11:39:38;5.70;65.20
12849;DHT22;6493;50.928;7.172;2023-03-14T11:44:45;5.80;65.10
12849;DHT22;6493;50.928;7.172;2023-03-14T11:49:50;5.90;65.10
12849;DHT22;6493;50.928;7.172;2023-03-14T11:55:00;6.00;65.20
12849;DHT22;6493;50.928;7.172;2023-03-14T12:00:15;6.00;65.10
12849;DHT22;6493;50.928;7.172;2023-03-14T12:10:47;5.90;63.50
12849;DHT22;6493;50.928;7.172;2023-03-14T12:15:55;5.80;63.40
12849;DHT22;6493;50.928;7.172;2023-03-14T12:21:02;5.70;63.50
12849;DHT22;6493;50.928;7.172;2023-03-14T12:26:12;5.70;63.60
12849;DHT22;6493;50.928;7.172;2023-03-14T12:31:43;5.60;63.60
12849;DHT22;6493;50.928;7.172;2023-03-14T12:37:02;5.50;63.30
12849;DHT22;6493;50.928;7.172;2023-03-14T12:42:11;5.50;63.50
12849;DHT22;6493;50.928;7.172;2023-03-14T12:47:49;5.50;63.80
12849;DHT22;6493;50.928;7.172;2023-03-14T12:53:20;5.50;64.50
12849;DHT22;6493;50.928;7.172;2023-03-14T12:58:34;5.60;64.30
12849;DHT22;6493;50.928;7.172;2023-03-14T13:03:45;5.60;63.70
12849;DHT22;6493;50.928;7.172;2023-03-14T13:08:49;5.60;63.40
12849;DHT22;6493;50.928;7.172;2023-03-14T13:13:59;5.60;63.80
12849;DHT22;6493;50.928;7.172;2023-03-14T13:19:09;5.50;62.90
12849;DHT22;6493;50.928;7.172;2023-03-14T13:24:22;5.40;62.90
12849;DHT22;6493;50.928;7.172;2023-03-14T13:29:28;5.40;63.30
12849;DHT22;6493;50.928;7.172;2023-03-14T13:34:34;5.50;63.70
12849;DHT22;6493;50.928;7.172;2023-03-14T13:39:39;5.60;63.70
12849;DHT22;6493;50.928;7.172;2023-03-14T13:44:43;5.70;63.50
12849;DHT22;6493;50.928;7.172;2023-03-14T13:49:49;5.70;63.10
12849;DHT22;6493;50.928;7.172;2023-03-14T13:54:55;5.70;62.80
12849;DHT22;6493;50.928;7.172;2023-03-14T14:00:01;5.70;62.50
12849;DHT22;6493;50.928;7.172;2023-03-14T14:05:11;5.60;62.00
12849;DHT22;6493;50.928;7.172;2023-03-14T14:10:15;5.50;61.80
12849;DHT22;6493;50.928;7.172;2023-03-14T14:15:21;5.40;62.00
12849;DHT22;6493;50.928;7.172;2023-03-14T14:20:29;5.30;62.10
12849;DHT22;6493;50.928;7.172;2023-03-14T14:25:37;5.30;62.20
12849;DHT22;6493;50.928;7.172;2023-03-14T14:30:41;5.30;62.70
12849;DHT22;6493;50.928;7.172;2023-03-14T14:35:55;5.40;62.70
12849;DHT22;6493;50.928;7.172;2023-03-14T14:41:00;5.50;62.50
12849;DHT22;6493;50.928;7.172;2023-03-14T14:46:06;5.50;61.20
12849;DHT22;6493;50.928;7.172;2023-03-14T14:51:23;5.40;61.20
12849;DHT22;6493;50.928;7.172;2023-03-14T14:56:28;5.30;60.90
12849;DHT22;6493;50.928;7.172;2023-03-14T15:01:34;5.20;61.20
12849;DHT22;6493;50.928;7.172;2023-03-14T15:06:40;5.20;61.30
12849;DHT22;6493;50.928;7.172;2023-03-14T15:11:45;5.20;61.40
12849;DHT22;6493;50.928;7.172;2023-03-14T15:16:48;5.20;61.50
12849;DHT22;6493;50.928;7.172;2023-03-14T15:21:53;5.30;61.60
12849;DHT22;6493;50.928;7.172;2023-03-14T15:26:56;5.30;61.30
12849;DHT22;6493;50.928;7.172;2023-03-14T15:31:59;5.30;61.30
12849;DHT22;6493;50.928;7.172;2023-03-14T15:37:04;5.30;61.40
12849;DHT22;6493;50.928;7.172;2023-03-14T15:42:09;5.30;61.30
12849;DHT22;6493;50.928;7.172;2023-03-14T15:47:12;5.30;61.30
12849;DHT22;6493;50.928;7.172;2023-03-14T15:52:17;5.40;61.50
12849;DHT22;6493;50.928;7.172;2023-03-14T15:57:20;5.40;61.50
12849;DHT22;6493;50.928;7.172;2023-03-14T16:02:24;5.40;61.30
12849;DHT22;6493;50.928;7.172;2023-03-14T16:07:28;5.40;61.00
12849;DHT22;6493;50.928;7.172;2023-03-14T16:12:34;5.40;61.00
12849;DHT22;6493;50.928;7.172;2023-03-14T16:17:37;5.30;60.80
12849;DHT22;6493;50.928;7.172;2023-03-14T16:22:45;5.30;60.70
12849;DHT22;6493;50.928;7.172;2023-03-14T16:27:49;5.20;60.70
12849;DHT22;6493;50.928;7.172;2023-03-14T16:33:09;5.20;60.70
12849;DHT22;6493;50.928;7.172;2023-03-14T16:38:15;5.20;60.30
12849;DHT22;6493;50.928;7.172;2023-03-14T16:43:18;5.10;60.60
12849;DHT22;6493;50.928;7.172;2023-03-14T16:48:21;5.00;59.30
12849;DHT22;6493;50.928;7.172;2023-03-14T16:53:26;5.00;59.30
12849;DHT22;6493;50.928;7.172;2023-03-14T16:58:31;4.90;59.30
12849;DHT22;6493;50.928;7.172;2023-03-14T17:03:35;4.80;59.10
12849;DHT22;6493;50.928;7.172;2023-03-14T17:08:40;4.80;58.80
12849;DHT22;6493;50.928;7.172;2023-03-14T17:13:43;4.70;58.50
12849;DHT22;6493;50.928;7.172;2023-03-14T17:18:47;4.70;58.50
12849;DHT22;6493;50.928;7.172;2023-03-14T17:23:52;4.60;58.40
12849;DHT22;6493;50.928;7.172;2023-03-14T17:28:56;4.50;58.30
12849;DHT22;6493;50.928;7.172;2023-03-14T17:34:00;4.50;58.30
12849;DHT22;6493;50.928;7.172;2023-03-14T17:39:04;4.40;57.90
12849;DHT22;6493;50.928;7.172;2023-03-14T17:44:09;4.30;57.80
12849;DHT22;6493;50.928;7.172;2023-03-14T17:49:13;4.30;57.50
12849;DHT22;6493;50.928;7.172;2023-03-14T17:54:18;4.10;57.30
12849;DHT22;6493;50.928;7.172;2023-03-14T17:59:21;4.10;57.20
12849;DHT22;6493;50.928;7.172;2023-03-14T18:04:24;4.00;57.50
12849;DHT22;6493;50.928;7.172;2023-03-14T18:09:29;3.90;57.30
12849;DHT22;6493;50.928;7.172;2023-03-14T18:14:33;3.90;56.90
12849;DHT22;6493;50.928;7.172;2023-03-14T18:19:36;3.80;57.10
12849;DHT22;6493;50.928;7.172;2023-03-14T18:24:41;3.80;56.80
12849;DHT22;6493;50.928;7.172;2023-03-14T18:29:44;3.70;57.80
12849;DHT22;6493;50.928;7.172;2023-03-14T18:34:48;3.70;58.00
12849;DHT22;6493;50.928;7.172;2023-03-14T18:39:53;3.70;58.00
12849;DHT22;6493;50.928;7.172;2023-03-14T18:44:56;3.70;57.80
12849;DHT22;6493;50.928;7.172;2023-03-14T18:50:00;3.70;57.80
12849;DHT22;6493;50.928;7.172;2023-03-14T18:55:06;3.60;57.50
12849;DHT22;6493;50.928;7.172;2023-03-14T19:00:10;3.60;57.60
12849;DHT22;6493;50.928;7.172;2023-03-14T19:05:15;3.50;57.50
12849;DHT22;6493;50.928;7.172;2023-03-14T19:10:19;3.50;57.40
12849;DHT22;6493;50.928;7.172;2023-03-14T19:15:23;3.50;57.30
12849;DHT22;6493;50.928;7.172;2023-03-14T19:20:26;3.40;57.00
12849;DHT22;6493;50.928;7.172;2023-03-14T19:25:31;3.40;56.80
12849;DHT22;6493;50.928;7.172;2023-03-14T19:30:34;3.30;57.00
12849;DHT22;6493;50.928;7.172;2023-03-14T19:35:38;3.20;57.00
12849;DHT22;6493;50.928;7.172;2023-03-14T19:40:42;3.20;57.10
12849;DHT22;6493;50.928;7.172;2023-03-14T19:45:47;3.10;56.90
12849;DHT22;6493;50.928;7.172;2023-03-14T19:50:50;3.10;56.80
12849;DHT22;6493;50.928;7.172;2023-03-14T19:55:55;3.00;56.80
12849;DHT22;6493;50.928;7.172;2023-03-14T20:00:59;3.00;57.00
12849;DHT22;6493;50.928;7.172;2023-03-14T20:06:04;2.90;56.90
12849;DHT22;6493;50.928;7.172;2023-03-14T20:11:08;2.90;56.70
12849;DHT22;6493;50.928;7.172;2023-03-14T20:16:12;2.80;56.90
12849;DHT22;6493;50.928;7.172;2023-03-14T20:21:15;2.80;56.90
12849;DHT22;6493;50.928;7.172;2023-03-14T20:26:20;2.70;56.80
12849;DHT22;6493;50.928;7.172;2023-03-14T20:31:23;2.60;56.90
12849;DHT22;6493;50.928;7.172;2023-03-14T20:36:27;2.60;56.90
12849;DHT22;6493;50.928;7.172;2023-03-14T20:41:31;2.60;56.80
12849;DHT22;6493;50.928;7.172;2023-03-14T20:46:35;2.50;56.80
12849;DHT22;6493;50.928;7.172;2023-03-14T20:51:38;2.40;56.70
12849;DHT22;6493;50.928;7.172;2023-03-14T20:56:43;2.40;56.70
12849;DHT22;6493;50.928;7.172;2023-03-14T21:01:47;2.40;56.70
12849;DHT22;6493;50.928;7.172;2023-03-14T21:06:52;2.30;56.30
12849;DHT22;6493;50.928;7.172;2023-03-14T21:11:57;2.20;57.10
12849;DHT22;6493;50.928;7.172;2023-03-14T21:17:01;2.20;56.40
12849;DHT22;6493;50.928;7.172;2023-03-14T21:22:04;2.10;56.50
12849;DHT22;6493;50.928;7.172;2023-03-14T21:27:09;2.00;56.50
12849;DHT22;6493;50.928;7.172;2023-03-14T21:32:13;1.90;56.40
12849;DHT22;6493;50.928;7.172;2023-03-14T21:37:17;1.80;56.40
12849;DHT22;6493;50.928;7.172;2023-03-14T21:42:22;1.70;56.20
12849;DHT22;6493;50.928;7.172;2023-03-14T21:47:26;1.70;56.30
12849;DHT22;6493;50.928;7.172;2023-03-14T21:52:29;1.60;56.40
12849;DHT22;6493;50.928;7.172;2023-03-14T21:57:34;1.50;56.40
12849;DHT22;6493;50.928;7.172;2023-03-14T22:02:37;1.40;56.40
12849;DHT22;6493;50.928;7.172;2023-03-14T22:07:42;1.30;56.30
12849;DHT22;6493;50.928;7.172;2023-03-14T22:12:47;1.20;56.30
12849;DHT22;6493;50.928;7.172;2023-03-14T22:17:50;1.10;56.30
12849;DHT22;6493;50.928;7.172;2023-03-14T22:22:54;1.00;56.40
12849;DHT22;6493;50.928;7.172;2023-03-14T22:27:59;1.00;56.50
12849;DHT22;6493;50.928;7.172;2023-03-14T22:33:02;0.80;56.30
12849;DHT22;6493;50.928;7.172;2023-03-14T22:38:05;0.80;56.40
12849;DHT22;6493;50.928;7.172;2023-03-14T22:43:10;0.70;56.30
12849;DHT22;6493;50.928;7.172;2023-03-14T22:48:13;0.60;56.30
12849;DHT22;6493;50.928;7.172;2023-03-14T22:53:17;0.60;56.30
12849;DHT22;6493;50.928;7.172;2023-03-14T22:58:22;0.50;56.30
12849;DHT22;6493;50.928;7.172;2023-03-14T23:03:25;0.50;56.40
12849;DHT22;6493;50.928;7.172;2023-03-14T23:08:29;0.40;56.40
12849;DHT22;6493;50.928;7.172;2023-03-14T23:13:35;0.40;56.50
12849;DHT22;6493;50.928;7.172;2023-03-14T23:18:40;0.30;56.50
12849;DHT22;6493;50.928;7.172;2023-03-14T23:23:46;0.30;56.60
12849;DHT22;6493;50.928;7.172;2023-03-14T23:28:52;0.30;56.70
12849;DHT22;6493;50.928;7.172;2023-03-14T23:33:55;0.30;56.80
12849;DHT22;6493;50.928;7.172;2023-03-14T23:38:58;0.20;56.70
12849;DHT22;6493;50.928;7.172;2023-03-14T23:44:03;0.20;56.80
12849;DHT22;6493;50.928;7.172;2023-03-14T23:49:06;0.20;56.90
12849;DHT22;6493;50.928;7.172;2023-03-14T23:54:09;0.20;57.00
12849;DHT22;6493;50.928;7.172;2023-03-14T23:59:14;0.30;57.00
